createdAt,value
2017-02-28T00:00:16.717Z,0
2017-02-28T00:00:57.370Z,0
2017-02-28T00:01:37.921Z,0
2017-02-28T00:02:18.535Z,0
2017-02-28T00:02:59.225Z,0
2017-02-28T00:03:39.880Z,0
2017-02-28T00:04:20.439Z,0
2017-02-28T00:05:01.130Z,0
2017-02-28T00:05:41.736Z,0
2017-02-28T00:06:22.389Z,0
2017-02-28T00:07:03.042Z,0
2017-02-28T00:07:43.686Z,0
2017-02-28T00:08:24.356Z,0
2017-02-28T00:09:06.025Z,0
2017-02-28T00:09:46.677Z,0
2017-02-28T00:10:27.331Z,0
2017-02-28T00:11:09.004Z,0
2017-02-28T00:11:49.601Z,0
2017-02-28T00:12:30.299Z,0
2017-02-28T00:13:10.968Z,0
2017-02-28T00:13:51.632Z,0
2017-02-28T00:14:32.202Z,0
2017-02-28T00:15:12.882Z,0
2017-02-28T00:15:56.446Z,0
2017-02-28T00:16:47.747Z,0
2017-02-28T00:17:28.401Z,0
2017-02-28T00:18:09.051Z,0
2017-02-28T00:18:50.738Z,0
2017-02-28T00:19:31.384Z,0
2017-02-28T00:20:12.042Z,0
2017-02-28T00:20:53.731Z,0
2017-02-28T00:21:34.374Z,0
2017-02-28T00:22:17.072Z,0
2017-02-28T00:22:57.725Z,0
2017-02-28T00:23:38.373Z,0
2017-02-28T00:24:29.679Z,0
2017-02-28T00:25:25.173Z,0
2017-02-28T00:26:05.745Z,0
2017-02-28T00:26:48.428Z,0
2017-02-28T00:27:31.126Z,0
2017-02-28T00:28:12.805Z,0
2017-02-28T00:28:53.391Z,0
2017-02-28T00:29:34.074Z,0
2017-02-28T00:30:14.764Z,0
2017-02-28T00:31:00.233Z,0
2017-02-28T00:31:40.810Z,0
2017-02-28T00:32:22.530Z,0
2017-02-28T00:33:03.223Z,0
2017-02-28T00:33:43.861Z,0
2017-02-28T00:34:24.426Z,0
2017-02-28T00:35:06.110Z,0
2017-02-28T00:35:46.750Z,0
2017-02-28T00:36:27.414Z,0
2017-02-28T00:37:09.080Z,0
2017-02-28T00:38:04.686Z,0
2017-02-28T00:38:46.361Z,0
2017-02-28T00:39:33.682Z,0
2017-02-28T00:40:19.234Z,0
2017-02-28T00:41:00.914Z,0
2017-02-28T00:41:41.497Z,0
2017-02-28T00:42:22.124Z,0
2017-02-28T00:45:38.101Z,0
2017-02-28T00:46:24.296Z,0
2017-02-28T00:47:04.863Z,0
2017-02-28T00:47:52.223Z,0
2017-02-28T00:48:33.951Z,0
2017-02-28T00:49:21.351Z,0
2017-02-28T00:50:01.943Z,0
2017-02-28T00:50:42.708Z,0
2017-02-28T00:51:29.055Z,0
2017-02-28T00:52:09.701Z,0
2017-02-28T00:52:50.264Z,0
2017-02-28T00:53:31.928Z,0
2017-02-28T00:54:13.609Z,0
2017-02-28T00:54:54.186Z,0
2017-02-28T00:55:34.938Z,0
2017-02-28T01:28:51.814Z,0
2017-02-28T01:29:32.380Z,0
2017-02-28T01:40:09.246Z,0
2017-02-28T01:41:01.423Z,0
2017-02-28T01:41:41.994Z,0
2017-02-28T01:42:37.158Z,0
2017-02-28T01:43:32.451Z,0
2017-02-28T01:44:13.028Z,0
2017-02-28T01:45:00.272Z,0
2017-02-28T01:45:42.941Z,0
2017-02-28T01:46:34.425Z,0
2017-02-28T01:47:14.996Z,0
2017-02-28T01:48:07.728Z,0
2017-02-28T02:28:57.225Z,0
2017-02-28T02:29:37.799Z,0
2017-02-28T02:30:18.547Z,0
2017-02-28T02:30:59.189Z,0
2017-02-28T02:31:39.799Z,0
2017-02-28T02:32:20.502Z,0
2017-02-28T02:33:01.147Z,0
2017-02-28T02:33:51.358Z,0
2017-02-28T02:34:32.016Z,0
2017-02-28T02:35:12.745Z,0
2017-02-28T02:35:53.390Z,0
2017-02-28T02:36:34.065Z,0
2017-02-28T02:37:14.795Z,0
2017-02-28T02:37:55.447Z,0
2017-02-28T02:38:37.127Z,0
2017-02-28T02:39:17.772Z,0
2017-02-28T02:39:58.426Z,0
2017-02-28T02:40:39.083Z,0
2017-02-28T02:41:19.735Z,0
2017-02-28T02:42:00.288Z,0
2017-02-28T02:42:41.010Z,0
2017-02-28T02:43:21.707Z,0
2017-02-28T02:44:02.350Z,0
2017-02-28T02:44:42.917Z,0
2017-02-28T02:45:23.603Z,0
2017-02-28T02:46:04.319Z,0
2017-02-28T02:46:44.957Z,0
2017-02-28T02:47:25.601Z,0
2017-02-28T02:48:06.280Z,0
2017-02-28T02:48:47.031Z,0
2017-02-28T02:49:27.776Z,0
2017-02-28T02:50:08.430Z,0
2017-02-28T02:50:49.182Z,0
2017-02-28T02:51:29.833Z,0
2017-02-28T02:52:10.398Z,0
2017-02-28T02:52:51.103Z,0
2017-02-28T02:53:31.795Z,0
2017-02-28T02:54:12.445Z,0
2017-02-28T02:54:53.019Z,0
2017-02-28T02:55:33.704Z,0
2017-02-28T02:56:14.415Z,0
2017-02-28T02:56:55.072Z,0
2017-02-28T02:57:36.746Z,0
2017-02-28T02:58:17.391Z,0
2017-02-28T02:58:58.044Z,0
2017-02-28T02:59:38.693Z,0
2017-02-28T03:00:19.354Z,0
2017-02-28T03:01:00.002Z,0
2017-02-28T03:01:40.653Z,0
2017-02-28T03:02:21.303Z,0
2017-02-28T03:03:02.057Z,0
2017-02-28T03:03:42.726Z,0
2017-02-28T03:04:23.472Z,0
2017-02-28T03:05:04.119Z,0
2017-02-28T03:05:44.727Z,0
2017-02-28T03:06:25.431Z,0
2017-02-28T03:07:05.987Z,0
2017-02-28T03:07:46.688Z,0
2017-02-28T03:08:27.395Z,0
2017-02-28T03:09:08.049Z,0
2017-02-28T03:09:48.623Z,0
2017-02-28T03:10:30.324Z,0
2017-02-28T03:11:11.021Z,0
2017-02-28T03:11:51.678Z,0
2017-02-28T03:12:32.434Z,0
2017-02-28T03:13:13.082Z,0
2017-02-28T03:13:53.738Z,0
2017-02-28T03:14:35.426Z,0
2017-02-28T03:15:16.177Z,0
2017-02-28T03:15:56.959Z,0
2017-02-28T03:16:37.683Z,0
2017-02-28T03:17:18.337Z,0
2017-02-28T03:17:58.997Z,0
2017-02-28T03:18:39.652Z,0
2017-02-28T03:19:20.290Z,0
2017-02-28T03:20:00.951Z,0
2017-02-28T03:20:41.598Z,0
2017-02-28T03:21:22.252Z,0
2017-02-28T03:22:02.833Z,0
2017-02-28T03:22:43.499Z,0
2017-02-28T03:23:24.221Z,0
2017-02-28T03:24:04.884Z,0
2017-02-28T03:24:45.424Z,0
2017-02-28T03:25:26.118Z,0
2017-02-28T03:26:06.829Z,0
2017-02-28T03:26:47.576Z,0
2017-02-28T03:27:29.252Z,0
2017-02-28T03:28:09.912Z,0
2017-02-28T03:28:50.563Z,0
2017-02-28T03:29:32.241Z,0
2017-02-28T03:30:12.892Z,0
2017-02-28T03:30:53.654Z,0
2017-02-28T03:31:34.293Z,0
2017-02-28T03:32:14.855Z,0
2017-02-28T03:32:55.607Z,0
2017-02-28T03:33:36.261Z,0
2017-02-28T03:34:16.830Z,0
2017-02-28T03:34:57.564Z,0
2017-02-28T03:35:39.243Z,0
2017-02-28T03:36:19.838Z,0
2017-02-28T03:37:00.553Z,0
2017-02-28T03:37:41.516Z,0
2017-02-28T03:38:22.093Z,0
2017-02-28T03:39:02.823Z,0
2017-02-28T03:39:43.466Z,0
2017-02-28T03:40:24.221Z,0
2017-02-28T03:41:04.791Z,0
2017-02-28T03:41:47.468Z,0
2017-02-28T03:42:30.173Z,0
2017-02-28T03:43:10.828Z,0
2017-02-28T03:43:51.582Z,0
2017-02-28T03:44:32.240Z,0
2017-02-28T03:45:13.915Z,0
2017-02-28T03:45:54.668Z,0
2017-02-28T03:46:35.319Z,0
2017-02-28T03:47:15.973Z,0
2017-02-28T03:47:56.626Z,0
2017-02-28T03:48:37.382Z,0
2017-02-28T03:49:18.142Z,0
2017-02-28T03:49:58.896Z,0
2017-02-28T03:50:39.646Z,0
2017-02-28T03:51:20.298Z,0
2017-02-28T03:52:00.957Z,0
2017-02-28T03:52:41.636Z,0
2017-02-28T03:53:22.360Z,0
2017-02-28T03:54:04.036Z,0
2017-02-28T03:54:44.690Z,0
2017-02-28T03:55:26.371Z,0
2017-02-28T03:56:07.123Z,0
2017-02-28T03:56:47.881Z,0
2017-02-28T03:57:29.553Z,0
2017-02-28T03:58:10.332Z,0
2017-02-28T03:58:50.963Z,0
2017-02-28T03:59:31.621Z,0
2017-02-28T04:00:12.424Z,0
2017-02-28T04:00:53.124Z,0
2017-02-28T04:01:33.776Z,0
2017-02-28T04:02:14.329Z,0
2017-02-28T04:02:55.058Z,0
2017-02-28T04:03:35.739Z,0
2017-02-28T04:04:16.391Z,0
2017-02-28T04:04:56.959Z,0
2017-02-28T04:05:37.669Z,0
2017-02-28T04:06:19.376Z,0
2017-02-28T04:07:00.023Z,0
2017-02-28T04:07:40.682Z,0
2017-02-28T04:08:21.433Z,0
2017-02-28T04:09:02.228Z,0
2017-02-28T04:09:42.944Z,0
2017-02-28T04:10:23.606Z,0
2017-02-28T04:11:04.359Z,0
2017-02-28T04:11:44.954Z,0
2017-02-28T04:12:25.688Z,0
2017-02-28T04:13:06.416Z,0
2017-02-28T04:13:47.001Z,0
2017-02-28T04:14:28.743Z,0
2017-02-28T04:15:09.416Z,0
2017-02-28T04:15:49.974Z,0
2017-02-28T04:16:30.714Z,0
2017-02-28T04:17:13.408Z,0
2017-02-28T04:17:54.007Z,0
2017-02-28T04:18:35.849Z,0
2017-02-28T04:19:16.591Z,0
2017-02-28T04:19:57.177Z,0
2017-02-28T04:20:37.911Z,0
2017-02-28T04:21:18.663Z,0
2017-02-28T04:21:59.226Z,0
2017-02-28T04:22:40.878Z,0
2017-02-28T04:23:21.717Z,0
2017-02-28T04:24:02.316Z,0
2017-02-28T04:24:43.001Z,0
2017-02-28T04:25:23.693Z,0
2017-02-28T04:26:04.454Z,0
2017-02-28T04:26:45.002Z,0
2017-02-28T04:27:25.705Z,0
2017-02-28T04:28:06.424Z,0
2017-02-28T04:28:48.188Z,0
2017-02-28T04:29:28.752Z,0
2017-02-28T04:30:09.447Z,0
2017-02-28T04:30:50.150Z,0
2017-02-28T04:31:30.799Z,0
2017-02-28T04:32:11.492Z,0
2017-02-28T04:32:54.254Z,0
2017-02-28T04:33:34.919Z,0
2017-02-28T04:34:15.667Z,0
2017-02-28T04:34:58.371Z,0
2017-02-28T04:35:39.124Z,0
2017-02-28T04:36:19.882Z,0
2017-02-28T04:37:00.442Z,0
2017-02-28T04:37:42.218Z,0
2017-02-28T04:38:22.858Z,0
2017-02-28T04:39:04.543Z,0
2017-02-28T04:39:45.104Z,0
2017-02-28T04:40:26.882Z,0
2017-02-28T04:41:07.649Z,0
2017-02-28T04:41:48.386Z,0
2017-02-28T04:42:29.142Z,0
2017-02-28T04:43:09.900Z,0
2017-02-28T04:43:50.649Z,0
2017-02-28T04:44:31.299Z,0
2017-02-28T04:45:12.058Z,0
2017-02-28T04:45:52.722Z,0
2017-02-28T04:46:37.970Z,0
2017-02-28T04:47:18.529Z,0
2017-02-28T04:48:00.253Z,0
2017-02-28T04:48:40.952Z,0
2017-02-28T04:49:22.747Z,0
2017-02-28T04:50:03.330Z,0
2017-02-28T04:50:43.999Z,0
2017-02-28T04:51:24.696Z,0
2017-02-28T04:52:05.445Z,0
2017-02-28T04:52:46.196Z,0
2017-02-28T04:53:28.902Z,0
2017-02-28T04:54:09.558Z,0
2017-02-28T04:54:50.309Z,0
2017-02-28T04:55:30.969Z,0
2017-02-28T04:56:11.721Z,0
2017-02-28T04:56:52.300Z,0
2017-02-28T04:57:33.033Z,0
2017-02-28T04:58:13.787Z,0
2017-02-28T04:58:54.344Z,0
2017-02-28T04:59:35.078Z,0
2017-02-28T05:00:15.746Z,0
2017-02-28T05:00:56.305Z,0
2017-02-28T05:01:36.961Z,0
2017-02-28T05:02:17.524Z,0
2017-02-28T05:02:58.253Z,0
2017-02-28T05:03:39.004Z,0
2017-02-28T05:04:19.759Z,0
2017-02-28T05:05:00.518Z,0
2017-02-28T05:05:42.195Z,0
2017-02-28T05:06:23.872Z,0
2017-02-28T05:07:04.654Z,0
2017-02-28T05:07:45.383Z,0
2017-02-28T05:08:27.061Z,0
2017-02-28T05:09:07.816Z,0
2017-02-28T05:09:48.467Z,0
2017-02-28T05:10:29.122Z,0
2017-02-28T05:11:10.794Z,0
2017-02-28T05:11:51.554Z,0
2017-02-28T05:12:32.322Z,0
2017-02-28T05:13:14.101Z,0
2017-02-28T05:13:54.837Z,0
2017-02-28T05:14:35.602Z,0
2017-02-28T05:15:17.314Z,0
2017-02-28T05:15:58.038Z,0
2017-02-28T05:16:38.784Z,0
2017-02-28T05:17:19.550Z,0
2017-02-28T05:18:00.296Z,0
2017-02-28T05:18:41.058Z,0
2017-02-28T05:19:22.836Z,0
2017-02-28T05:20:03.587Z,0
2017-02-28T05:20:45.371Z,0
2017-02-28T05:21:27.044Z,0
2017-02-28T05:22:07.797Z,0
2017-02-28T05:22:48.571Z,0
2017-02-28T05:23:35.044Z,0
2017-02-28T05:24:15.801Z,0
2017-02-28T05:24:56.555Z,0
2017-02-28T05:25:37.313Z,0
2017-02-28T05:26:18.073Z,0
2017-02-28T05:26:58.823Z,0
2017-02-28T05:27:39.577Z,0
2017-02-28T05:28:21.289Z,0
2017-02-28T05:29:02.018Z,0
2017-02-28T05:29:42.757Z,0
2017-02-28T05:30:25.361Z,0
2017-02-28T05:31:06.124Z,0
2017-02-28T05:31:46.878Z,0
2017-02-28T05:32:27.460Z,0
2017-02-28T05:33:08.171Z,0
2017-02-28T05:33:53.608Z,0
2017-02-28T05:34:34.182Z,0
2017-02-28T05:35:15.860Z,0
2017-02-28T05:35:57.548Z,0
2017-02-28T05:36:38.139Z,0
2017-02-28T05:37:18.858Z,0
2017-02-28T05:38:00.638Z,0
2017-02-28T05:38:41.201Z,0
2017-02-28T05:39:26.924Z,0
2017-02-28T05:40:07.616Z,0
2017-02-28T05:40:48.385Z,0
2017-02-28T05:41:28.958Z,0
2017-02-28T05:42:09.747Z,0
2017-02-28T05:42:51.458Z,0
2017-02-28T05:43:32.213Z,0
2017-02-28T05:44:12.792Z,0
2017-02-28T05:44:53.504Z,0
2017-02-28T05:45:34.077Z,0
2017-02-28T05:46:19.531Z,0
2017-02-28T05:47:00.089Z,0
2017-02-28T05:47:40.819Z,0
2017-02-28T05:48:22.580Z,0
2017-02-28T05:49:05.273Z,0
2017-02-28T05:49:46.040Z,0
2017-02-28T05:50:32.455Z,0
2017-02-28T05:51:13.087Z,0
2017-02-28T05:51:53.849Z,4
2017-02-28T05:52:34.642Z,72
2017-02-28T05:53:15.382Z,76
2017-02-28T05:53:55.939Z,4
2017-02-28T05:54:36.646Z,4
2017-02-28T05:55:17.337Z,4
2017-02-28T05:55:58.098Z,0
2017-02-28T05:56:38.666Z,4
2017-02-28T05:57:20.526Z,4
2017-02-28T05:58:01.288Z,4
2017-02-28T05:58:42.041Z,4
2017-02-28T05:59:24.947Z,8
2017-02-28T06:00:11.540Z,4
2017-02-28T06:00:52.293Z,8
2017-02-28T06:01:37.548Z,8
2017-02-28T06:02:18.115Z,8
2017-02-28T06:02:58.878Z,12
2017-02-28T06:03:40.651Z,12
2017-02-28T06:04:21.222Z,12
2017-02-28T06:05:02.991Z,16
2017-02-28T06:05:44.781Z,16
2017-02-28T06:06:25.334Z,16
2017-02-28T06:07:07.078Z,16
2017-02-28T06:07:47.833Z,16
2017-02-28T06:08:28.588Z,16
2017-02-28T06:09:09.385Z,20
2017-02-28T06:09:51.123Z,20
2017-02-28T06:10:31.878Z,20
2017-02-28T06:11:12.628Z,20
2017-02-28T06:11:54.464Z,16
2017-02-28T06:12:35.179Z,16
2017-02-28T06:13:15.917Z,24
2017-02-28T06:13:57.721Z,24
2017-02-28T06:14:43.065Z,32
2017-02-28T06:15:23.717Z,32
2017-02-28T06:16:04.485Z,32
2017-02-28T06:16:47.175Z,36
2017-02-28T06:17:28.032Z,32
2017-02-28T06:18:08.788Z,32
2017-02-28T06:18:49.544Z,36
2017-02-28T06:19:30.325Z,40
2017-02-28T06:20:11.052Z,48
2017-02-28T06:20:52.218Z,52
2017-02-28T06:21:32.972Z,60
2017-02-28T06:22:13.540Z,68
2017-02-28T06:22:54.251Z,68
2017-02-28T06:23:35.029Z,76
2017-02-28T06:24:15.801Z,80
2017-02-28T06:24:56.367Z,84
2017-02-28T06:25:37.050Z,88
2017-02-28T06:26:18.775Z,92
2017-02-28T06:27:01.654Z,96
2017-02-28T06:27:42.774Z,100
2017-02-28T06:28:28.321Z,112
2017-02-28T06:29:11.008Z,128
2017-02-28T06:29:51.586Z,144
2017-02-28T06:30:32.304Z,152
2017-02-28T06:31:13.071Z,168
2017-02-28T06:31:53.654Z,168
2017-02-28T06:32:34.396Z,176
2017-02-28T06:33:15.128Z,192
2017-02-28T06:33:55.689Z,200
2017-02-28T06:34:41.424Z,212
2017-02-28T06:35:22.223Z,224
2017-02-28T06:36:03.991Z,228
2017-02-28T06:36:44.553Z,236
2017-02-28T06:37:25.401Z,244
2017-02-28T06:38:06.152Z,252
2017-02-28T06:38:47.933Z,256
2017-02-28T06:39:29.710Z,264
2017-02-28T06:40:10.474Z,272
2017-02-28T06:40:52.260Z,280
2017-02-28T06:41:33.008Z,292
2017-02-28T06:42:13.581Z,324
2017-02-28T06:42:54.354Z,376
2017-02-28T06:43:35.049Z,448
2017-02-28T06:44:15.816Z,488
2017-02-28T06:44:56.384Z,552
2017-02-28T06:45:37.076Z,576
2017-02-28T06:46:17.766Z,576
2017-02-28T06:47:00.484Z,572
2017-02-28T06:47:41.082Z,548
2017-02-28T06:48:21.856Z,516
2017-02-28T06:49:02.434Z,492
2017-02-28T06:49:44.127Z,472
2017-02-28T06:50:24.687Z,472
2017-02-28T06:51:05.411Z,476
2017-02-28T06:51:47.097Z,464
2017-02-28T06:52:29.706Z,424
2017-02-28T06:53:10.271Z,444
2017-02-28T06:53:50.858Z,440
2017-02-28T06:54:31.445Z,428
2017-02-28T06:55:14.059Z,404
2017-02-28T06:55:54.676Z,428
2017-02-28T06:56:36.342Z,404
2017-02-28T06:57:16.925Z,392
2017-02-28T06:57:59.532Z,416
2017-02-28T06:58:40.100Z,412
2017-02-28T06:59:20.734Z,396
2017-02-28T07:00:13.984Z,360
2017-02-28T07:00:54.545Z,340
2017-02-28T07:01:35.194Z,324
2017-02-28T07:02:15.845Z,356
2017-02-28T07:02:56.454Z,376
2017-02-28T07:03:42.989Z,404
2017-02-28T07:04:39.535Z,356
2017-02-28T07:05:21.188Z,324
2017-02-28T07:06:01.835Z,300
2017-02-28T07:06:52.939Z,284
2017-02-28T07:07:33.590Z,344
2017-02-28T07:08:15.274Z,428
2017-02-28T07:08:55.915Z,456
2017-02-28T07:09:36.591Z,496
2017-02-28T07:10:17.216Z,584
2017-02-28T07:10:58.899Z,664
2017-02-28T07:11:40.663Z,692
2017-02-28T07:12:21.244Z,712
2017-02-28T07:13:01.819Z,612
2017-02-28T07:13:42.510Z,584
2017-02-28T07:14:24.262Z,516
2017-02-28T07:15:04.966Z,480
2017-02-28T07:15:45.770Z,432
2017-02-28T07:16:26.482Z,428
2017-02-28T07:17:07.047Z,464
2017-02-28T07:17:53.227Z,520
2017-02-28T07:18:33.863Z,540
2017-02-28T07:19:14.824Z,544
2017-02-28T07:19:55.397Z,564
2017-02-28T07:20:35.989Z,532
2017-02-28T07:21:16.579Z,568
2017-02-28T07:22:03.993Z,636
2017-02-28T07:22:44.573Z,672
2017-02-28T07:23:25.250Z,648
2017-02-28T07:24:06.875Z,576
2017-02-28T07:24:49.578Z,524
2017-02-28T07:25:30.157Z,548
2017-02-28T07:26:11.762Z,544
2017-02-28T07:26:52.449Z,548
2017-02-28T07:27:39.972Z,676
2017-02-28T07:28:20.556Z,736
2017-02-28T07:29:02.209Z,628
2017-02-28T07:29:44.798Z,672
2017-02-28T07:30:25.355Z,812
2017-02-28T07:31:05.992Z,872
2017-02-28T07:31:51.473Z,988
2017-02-28T07:32:32.043Z,1124
2017-02-28T07:33:12.683Z,1296
2017-02-28T07:33:57.928Z,1684
2017-02-28T07:34:38.508Z,2100
2017-02-28T07:35:24.817Z,2568
2017-02-28T07:36:05.414Z,2680
2017-02-28T07:36:46.072Z,2712
2017-02-28T07:37:26.631Z,2876
2017-02-28T07:38:13.770Z,3104
2017-02-28T07:39:11.337Z,3068
2017-02-28T07:39:51.983Z,2784
2017-02-28T07:40:32.662Z,2376
2017-02-28T07:41:13.342Z,1972
2017-02-28T07:41:54.963Z,1644
2017-02-28T07:42:46.399Z,1400
2017-02-28T07:43:27.076Z,1336
2017-02-28T07:44:07.679Z,1356
2017-02-28T07:44:48.326Z,1316
2017-02-28T07:45:29.018Z,1288
2017-02-28T07:46:09.624Z,1308
2017-02-28T07:46:55.812Z,1416
2017-02-28T07:47:36.493Z,1440
2017-02-28T07:48:29.989Z,1424
2017-02-28T07:49:10.550Z,1308
2017-02-28T07:49:51.182Z,1284
2017-02-28T07:50:32.752Z,1352
2017-02-28T07:51:13.298Z,1420
2017-02-28T07:51:53.950Z,1568
2017-02-28T07:52:35.533Z,1720
2017-02-28T07:53:16.232Z,1764
2017-02-28T07:53:56.829Z,1536
2017-02-28T07:54:37.483Z,1232
2017-02-28T07:55:18.150Z,1036
2017-02-28T07:55:58.788Z,880
2017-02-28T07:56:39.440Z,984
2017-02-28T07:57:20.002Z,1132
2017-02-28T07:58:00.678Z,1372
2017-02-28T07:58:43.343Z,1640
2017-02-28T07:59:23.920Z,1676
2017-02-28T08:00:06.653Z,1656
2017-02-28T08:00:49.298Z,1804
2017-02-28T08:01:29.864Z,2096
2017-02-28T08:02:12.446Z,2324
2017-02-28T08:02:53.099Z,2604
2017-02-28T08:03:38.463Z,2908
2017-02-28T08:04:21.058Z,2944
2017-02-28T08:05:02.745Z,3012
2017-02-28T08:05:59.986Z,2864
2017-02-28T08:06:51.497Z,2956
2017-02-28T08:07:32.136Z,3360
2017-02-28T08:08:13.839Z,3644
2017-02-28T08:08:54.473Z,3660
2017-02-28T08:09:35.128Z,3388
2017-02-28T08:10:15.776Z,3084
2017-02-28T08:10:56.430Z,2932
2017-02-28T08:11:38.114Z,3144
2017-02-28T08:12:18.764Z,3136
2017-02-28T08:12:59.418Z,3052
2017-02-28T08:13:40.097Z,3012
2017-02-28T08:14:20.737Z,2820
2017-02-28T08:15:05.977Z,2580
2017-02-28T08:15:46.538Z,2420
2017-02-28T08:16:29.138Z,2312
2017-02-28T08:17:14.493Z,2196
2017-02-28T08:17:55.071Z,2104
2017-02-28T08:18:36.726Z,1952
2017-02-28T08:19:19.320Z,1972
2017-02-28T08:20:00.991Z,1972
2017-02-28T08:20:41.649Z,1848
2017-02-28T08:21:28.958Z,1888
2017-02-28T08:22:11.559Z,1536
2017-02-28T08:22:52.110Z,1320
2017-02-28T08:23:32.710Z,1308
2017-02-28T08:24:13.312Z,1404
2017-02-28T08:24:53.899Z,1536
2017-02-28T08:25:34.513Z,1540
2017-02-28T08:26:15.088Z,1612
2017-02-28T08:26:55.671Z,1808
2017-02-28T08:27:37.294Z,1956
2017-02-28T08:28:17.938Z,1800
2017-02-28T08:29:03.418Z,1568
2017-02-28T08:29:44.076Z,1328
2017-02-28T08:30:24.721Z,1096
2017-02-28T08:31:06.392Z,964
2017-02-28T08:31:47.044Z,1092
2017-02-28T08:32:27.603Z,1172
2017-02-28T08:33:08.174Z,1088
2017-02-28T08:33:48.786Z,1252
2017-02-28T08:34:29.402Z,1336
2017-02-28T08:35:09.983Z,1148
2017-02-28T08:35:50.664Z,964
2017-02-28T08:36:31.257Z,836
2017-02-28T08:37:11.918Z,904
2017-02-28T08:37:52.485Z,1164
2017-02-28T08:38:33.085Z,1268
2017-02-28T08:39:13.776Z,1220
2017-02-28T08:39:54.431Z,1164
2017-02-28T08:40:34.987Z,1112
2017-02-28T08:41:15.576Z,1004
2017-02-28T08:41:56.175Z,1096
2017-02-28T08:42:36.834Z,1200
2017-02-28T08:43:17.487Z,1160
2017-02-28T08:43:58.139Z,1016
2017-02-28T08:44:38.793Z,1044
2017-02-28T08:45:19.544Z,1276
2017-02-28T08:46:00.202Z,1416
2017-02-28T08:46:40.865Z,1544
2017-02-28T08:47:21.426Z,1732
2017-02-28T08:48:02.034Z,1932
2017-02-28T08:48:43.639Z,2052
2017-02-28T08:49:24.287Z,2160
2017-02-28T08:50:04.881Z,2100
2017-02-28T08:50:45.534Z,1824
2017-02-28T08:51:26.246Z,1844
2017-02-28T08:52:06.896Z,1608
2017-02-28T08:52:47.480Z,1440
2017-02-28T08:53:28.171Z,1564
2017-02-28T08:54:08.806Z,1512
2017-02-28T08:54:49.448Z,1280
2017-02-28T08:55:30.069Z,1176
2017-02-28T08:56:10.711Z,1004
2017-02-28T08:56:51.364Z,892
2017-02-28T08:57:32.039Z,984
2017-02-28T08:58:12.781Z,1168
2017-02-28T08:58:53.534Z,1168
2017-02-28T08:59:34.284Z,1060
2017-02-28T09:00:15.042Z,996
2017-02-28T09:00:55.795Z,1116
2017-02-28T09:01:36.554Z,1168
2017-02-28T09:02:17.200Z,1036
2017-02-28T09:02:58.799Z,992
2017-02-28T09:03:39.437Z,952
2017-02-28T09:04:20.087Z,964
2017-02-28T09:05:00.739Z,1120
2017-02-28T09:05:43.334Z,1092
2017-02-28T09:06:23.987Z,1068
2017-02-28T09:07:04.643Z,1148
2017-02-28T09:07:45.194Z,1096
2017-02-28T09:08:27.770Z,1012
2017-02-28T09:09:09.751Z,1124
2017-02-28T09:09:50.585Z,1252
2017-02-28T09:10:31.185Z,1540
2017-02-28T09:11:11.837Z,2016
2017-02-28T09:11:52.404Z,2116
2017-02-28T09:12:33.034Z,2156
2017-02-28T09:13:24.452Z,2376
2017-02-28T09:14:05.029Z,2392
2017-02-28T09:14:47.818Z,2208
2017-02-28T09:15:30.492Z,2020
2017-02-28T09:16:11.070Z,2248
2017-02-28T09:16:52.744Z,2644
2017-02-28T09:17:33.378Z,2620
2017-02-28T09:18:13.936Z,2320
2017-02-28T09:18:54.547Z,2244
2017-02-28T09:19:35.139Z,2560
2017-02-28T09:20:15.786Z,2932
2017-02-28T09:20:56.358Z,3096
2017-02-28T09:21:36.931Z,3404
2017-02-28T09:22:17.645Z,3480
2017-02-28T09:22:58.305Z,3276
2017-02-28T09:23:38.861Z,3392
2017-02-28T09:24:24.416Z,3620
2017-02-28T09:25:05.185Z,3600
2017-02-28T09:25:45.810Z,3516
2017-02-28T09:26:26.681Z,3424
2017-02-28T09:27:09.422Z,3340
2017-02-28T09:27:50.058Z,3328
2017-02-28T09:28:31.829Z,3516
2017-02-28T09:29:19.456Z,3976
2017-02-28T09:30:00.083Z,4228
2017-02-28T09:30:40.721Z,4360
2017-02-28T09:31:21.466Z,4256
2017-02-28T09:32:02.089Z,3808
2017-02-28T09:32:42.775Z,3220
2017-02-28T09:33:23.430Z,2992
2017-02-28T09:34:04.088Z,3108
2017-02-28T09:34:44.687Z,3300
2017-02-28T09:35:26.366Z,3280
2017-02-28T09:36:06.990Z,3444
2017-02-28T09:36:49.631Z,3644
2017-02-28T09:37:30.233Z,3948
2017-02-28T09:38:10.843Z,4128
2017-02-28T09:38:51.403Z,4152
2017-02-28T09:39:32.031Z,4048
2017-02-28T09:40:13.640Z,4108
2017-02-28T09:40:54.203Z,4848
2017-02-28T09:41:34.786Z,4852
2017-02-28T09:42:15.438Z,4956
2017-02-28T09:42:56.187Z,4952
2017-02-28T09:43:36.932Z,4892
2017-02-28T09:44:17.516Z,5040
2017-02-28T09:44:58.082Z,5096
2017-02-28T09:45:38.641Z,5432
2017-02-28T09:46:19.261Z,5164
2017-02-28T09:46:59.887Z,4788
2017-02-28T09:47:40.446Z,4588
2017-02-28T09:48:21.132Z,4508
2017-02-28T09:49:01.757Z,4592
2017-02-28T09:49:42.404Z,4860
2017-02-28T09:50:23.053Z,4896
2017-02-28T09:51:03.697Z,5596
2017-02-28T09:51:44.359Z,5248
2017-02-28T09:52:25.109Z,5264
2017-02-28T09:53:05.774Z,4328
2017-02-28T09:53:46.521Z,3976
2017-02-28T09:54:27.276Z,3456
2017-02-28T09:55:08.039Z,3112
2017-02-28T09:55:48.787Z,2980
2017-02-28T09:56:29.541Z,2868
2017-02-28T09:57:10.206Z,2904
2017-02-28T09:57:50.789Z,3224
2017-02-28T09:58:31.468Z,3408
2017-02-28T09:59:12.052Z,3236
2017-02-28T09:59:52.627Z,2904
2017-02-28T10:00:33.256Z,2588
2017-02-28T10:01:14.838Z,2240
2017-02-28T10:01:55.415Z,2376
2017-02-28T10:02:36.041Z,2496
2017-02-28T10:03:16.685Z,2716
2017-02-28T10:03:57.231Z,2932
2017-02-28T10:04:37.862Z,2988
2017-02-28T10:05:18.440Z,3228
2017-02-28T10:05:59.099Z,3344
2017-02-28T10:06:39.677Z,2948
2017-02-28T10:07:20.265Z,2508
2017-02-28T10:08:00.844Z,2044
2017-02-28T10:08:41.507Z,1840
2017-02-28T10:09:22.053Z,1924
2017-02-28T10:10:02.680Z,2448
2017-02-28T10:10:43.465Z,2880
2017-02-28T10:11:24.222Z,2916
2017-02-28T10:12:04.775Z,3100
2017-02-28T10:12:45.398Z,3492
2017-02-28T10:13:26.173Z,4156
2017-02-28T10:14:06.835Z,4432
2017-02-28T10:14:47.592Z,4724
2017-02-28T10:15:28.227Z,4976
2017-02-28T10:16:08.911Z,5340
2017-02-28T10:16:49.550Z,5956
2017-02-28T10:17:30.187Z,6580
2017-02-28T10:18:10.859Z,6652
2017-02-28T10:18:51.474Z,6616
2017-02-28T10:19:32.104Z,6524
2017-02-28T10:20:12.702Z,6160
2017-02-28T10:20:53.356Z,6396
2017-02-28T10:21:33.916Z,7024
2017-02-28T10:22:14.510Z,7152
2017-02-28T10:22:55.212Z,7104
2017-02-28T10:23:35.895Z,6820
2017-02-28T10:24:16.533Z,6472
2017-02-28T10:24:57.154Z,6044
2017-02-28T10:25:37.955Z,5468
2017-02-28T10:26:18.582Z,5024
2017-02-28T10:26:59.151Z,5076
2017-02-28T10:27:39.834Z,4652
2017-02-28T10:28:21.583Z,3976
2017-02-28T10:29:02.222Z,3468
2017-02-28T10:29:42.861Z,3388
2017-02-28T10:30:23.525Z,3568
2017-02-28T10:31:04.179Z,3712
2017-02-28T10:31:44.829Z,3972
2017-02-28T10:32:25.484Z,3972
2017-02-28T10:33:06.147Z,3880
2017-02-28T10:33:46.707Z,3724
2017-02-28T10:34:27.328Z,3488
2017-02-28T10:35:09.917Z,3736
2017-02-28T10:35:50.609Z,4140
2017-02-28T10:36:31.214Z,4452
2017-02-28T10:37:11.853Z,4320
2017-02-28T10:37:52.473Z,4212
2017-02-28T10:38:33.120Z,3988
2017-02-28T10:39:13.698Z,4008
2017-02-28T10:39:54.292Z,3928
2017-02-28T10:40:34.972Z,4008
2017-02-28T10:41:15.549Z,4600
2017-02-28T10:41:56.176Z,5288
2017-02-28T10:42:36.804Z,5996
2017-02-28T10:43:17.480Z,6248
2017-02-28T10:43:58.068Z,5912
2017-02-28T10:44:38.811Z,5072
2017-02-28T10:45:20.464Z,4688
2017-02-28T10:46:01.156Z,5032
2017-02-28T10:46:41.930Z,5764
2017-02-28T10:47:22.659Z,6276
2017-02-28T10:48:03.381Z,6000
2017-02-28T10:48:44.023Z,5232
2017-02-28T10:49:24.677Z,4508
2017-02-28T10:50:05.325Z,4052
2017-02-28T10:50:45.983Z,3700
2017-02-28T10:51:27.652Z,4120
2017-02-28T10:52:08.324Z,4716
2017-02-28T10:52:48.961Z,5676
2017-02-28T10:53:30.643Z,7108
2017-02-28T10:54:11.308Z,8276
2017-02-28T10:54:51.944Z,8804
2017-02-28T10:55:32.596Z,9056
2017-02-28T10:56:13.247Z,9412
2017-02-28T10:56:53.838Z,9448
2017-02-28T10:57:34.445Z,9360
2017-02-28T10:58:15.104Z,8996
2017-02-28T10:58:55.770Z,8620
2017-02-28T10:59:36.408Z,8392
2017-02-28T11:00:17.059Z,8148
2017-02-28T11:00:57.728Z,7932
2017-02-28T11:01:38.405Z,7500
2017-02-28T11:02:19.023Z,7200
2017-02-28T11:02:59.584Z,7028
2017-02-28T11:03:40.193Z,6668
2017-02-28T11:04:20.875Z,6200
2017-02-28T11:05:03.580Z,5532
2017-02-28T11:05:44.145Z,4968
2017-02-28T11:06:24.724Z,4760
2017-02-28T11:07:05.336Z,4660
2017-02-28T11:07:45.898Z,4728